Time;durP1;ratioP1;P1;durP2;ratioP2;P2;SDS_P1;SDS_P2;PMS_P1;PMS_P2;Temp;Humidity;BMP_temperature;BMP_pressure;BME280_temperature;BME280_humidity;BME280_pressure;Samples;Min_cycle;Max_cycle;Signal;HPM_P1;HPM_P2
2024/02/01 00:00:47;;;;;;;6.93;0.52;;;;;;;2.66;70.39;99459.06;5048866;28;20541;-78
2024/02/01 00:03:14;;;;;;;5.80;0.50;;;;;;;2.66;70.35;99456.47;5049132;28;20153;-77
2024/02/01 00:05:41;;;;;;;1.63;0.40;;;;;;;2.67;70.30;99450.44;5050052;28;20168;-78
2024/02/01 00:08:10;;;;;;;4.03;0.93;;;;;;;2.68;70.37;99459.06;5048476;28;20088;-77
2024/02/01 00:10:37;;;;;;;5.45;0.80;;;;;;;2.68;70.39;99443.56;5049130;28;20096;-77
2024/02/01 00:13:04;;;;;;;3.17;0.50;;;;;;;2.69;70.45;99437.50;5048636;28;20087;-77
2024/02/01 00:15:32;;;;;;;6.55;0.50;;;;;;;2.69;70.49;99438.34;5047494;28;20110;-77
2024/02/01 00:17:59;;;;;;;1.70;0.47;;;;;;;2.70;70.54;99421.13;5050185;28;20041;-77
2024/02/01 00:20:26;;;;;;;2.58;0.40;;;;;;;2.70;70.60;99422.00;5047929;28;20089;-77
2024/02/01 00:22:53;;;;;;;7.28;0.60;;;;;;;2.70;70.58;99406.50;5047818;28;20495;-77
2024/02/01 00:25:22;;;;;;;3.60;0.40;;;;;;;2.70;70.61;99410.78;5049286;28;20091;-76
2024/02/01 00:27:49;;;;;;;3.30;0.63;;;;;;;2.71;70.50;99397.88;5046084;28;20628;-77
2024/02/01 00:30:17;;;;;;;3.45;0.40;;;;;;;2.70;70.75;99391.03;5047839;28;20083;-73
2024/02/01 00:32:44;;;;;;;2.42;0.50;;;;;;;2.73;70.62;99387.50;5048734;28;20103;-73
2024/02/01 00:35:11;;;;;;;1.58;0.38;;;;;;;2.74;70.67;99386.66;5047867;28;20072;-74
2024/02/01 00:37:38;;;;;;;3.88;0.65;;;;;;;2.74;70.82;99361.69;5045240;28;20088;-73
2024/02/01 00:40:06;;;;;;;2.42;0.55;;;;;;;2.75;71.02;99363.38;5043885;28;20147;-72
2024/02/01 00:42:35;;;;;;;4.03;0.40;;;;;;;2.75;71.15;99358.22;5047615;28;20128;-72
2024/02/01 00:45:01;;;;;;;0.80;0.60;;;;;;;2.76;71.11;99343.59;5046962;28;20062;-73
2024/02/01 00:47:28;;;;;;;3.30;0.45;;;;;;;2.75;71.14;99347.88;5048492;28;20041;-72
2024/02/01 00:49:55;;;;;;;4.40;0.40;;;;;;;2.77;71.17;99335.81;5046359;28;20088;-72
2024/02/01 00:52:22;;;;;;;5.50;0.50;;;;;;;2.78;71.37;99331.50;5047192;28;20131;-72
2024/02/01 00:54:49;;;;;;;3.00;0.40;;;;;;;2.78;71.36;99311.69;5045982;28;20125;-72
2024/02/01 00:57:16;;;;;;;1.65;0.40;;;;;;;2.79;71.48;99318.56;5048256;28;20072;-72
2024/02/01 00:59:45;;;;;;;3.42;0.50;;;;;;;2.81;71.72;99310.78;5044620;28;20068;-72
2024/02/01 01:02:13;;;;;;;5.50;0.40;;;;;;;2.81;71.70;99296.16;5046408;28;20084;-72
2024/02/01 01:04:40;;;;;;;2.55;0.60;;;;;;;2.82;71.77;99303.03;5046154;28;20049;-72
2024/02/01 01:07:07;;;;;;;3.08;0.20;;;;;;;2.83;71.97;99296.97;5045535;28;20131;-72
2024/02/01 01:09:34;;;;;;;0.70;0.30;;;;;;;2.86;71.94;99292.66;5046238;28;20092;-73
2024/02/01 01:12:01;;;;;;;3.15;0.28;;;;;;;2.85;72.03;99288.38;5043973;28;20560;-72
2024/02/01 01:14:28;;;;;;;0.50;0.28;;;;;;;2.87;72.21;99286.59;5043354;28;20041;-72
2024/02/01 01:16:57;;;;;;;0.32;0.20;;;;;;;2.88;72.33;99272.81;5047684;28;20048;-72
2024/02/01 01:19:24;;;;;;;1.95;0.85;;;;;;;2.89;72.40;99267.63;5044187;28;20073;-72
2024/02/01 01:21:51;;;;;;;1.00;0.20;;;;;;;2.89;72.51;99266.75;5048970;28;20076;-72
2024/02/01 01:24:18;;;;;;;1.50;0.30;;;;;;;2.90;72.69;99279.69;5045474;28;20084;-72
2024/02/01 01:26:45;;;;;;;0.70;0.30;;;;;;;2.91;72.83;99271.03;5046906;28;20084;-73
2024/02/01 01:29:12;;;;;;;1.80;0.30;;;;;;;2.91;72.91;99270.19;5046533;28;20524;-72
2024/02/01 01:31:39;;;;;;;1.30;0.20;;;;;;;2.94;72.94;99277.88;5047160;28;20099;-73
2024/02/01 01:34:07;;;;;;;0.20;0.10;;;;;;;2.95;73.26;99270.09;5044633;28;20479;-72
2024/02/01 01:36:34;;;;;;;2.38;0.10;;;;;;;2.95;73.18;99264.09;5045660;28;20526;-72
2024/02/01 01:39:01;;;;;;;2.30;0.20;;;;;;;2.97;73.35;99267.50;5046069;28;20738;-72
2024/02/01 01:41:28;;;;;;;0.55;0.10;;;;;;;2.98;73.61;99269.19;5046380;28;20127;-73
2024/02/01 01:43:55;;;;;;;0.70;0.20;;;;;;;3.01;73.61;99270.03;5046081;28;20088;-72
2024/02/01 01:46:23;;;;;;;1.27;0.10;;;;;;;3.01;73.81;99241.59;5045947;28;20190;-72
2024/02/01 01:48:50;;;;;;;1.08;0.10;;;;;;;3.02;74.09;99252.78;5046377;28;20081;-81
2024/02/01 01:51:19;;;;;;;0.73;0.10;;;;;;;3.02;73.95;99258.81;5050520;28;20107;-85
2024/02/01 01:53:49;;;;;;;0.10;0.10;;;;;;;3.03;74.08;99265.66;5048148;28;20152;-81
2024/02/01 01:56:17;;;;;;;0.50;0.20;;;;;;;3.03;74.45;99275.16;5047962;28;20073;-82
2024/02/01 01:58:46;;;;;;;0.43;0.32;;;;;;;3.04;74.55;99288.06;5050240;28;20098;-81
2024/02/01 02:01:14;;;;;;;1.33;0.10;;;;;;;3.05;74.38;99273.41;5043846;28;20091;-81
2024/02/01 02:03:43;;;;;;;0.88;0.10;;;;;;;3.06;74.63;99272.50;5050540;28;20084;-81
2024/02/01 02:06:10;;;;;;;0.28;0.10;;;;;;;3.00;74.55;99260.56;5053275;28;20475;-81
2024/02/01 02:08:38;;;;;;;0.32;0.10;;;;;;;3.07;74.65;99271.66;5052433;28;20466;-81
2024/02/01 02:11:05;;;;;;;2.83;0.10;;;;;;;3.06;74.80;99269.94;5040883;28;20077;-81
2024/02/01 02:13:32;;;;;;;2.08;0.10;;;;;;;3.08;74.84;99263.00;5050606;28;20091;-81
2024/02/01 02:15:59;;;;;;;0.25;0.20;;;;;;;3.08;74.88;99257.84;5047674;28;20147;-81
2024/02/01 02:18:26;;;;;;;0.10;0.00;;;;;;;3.09;74.75;99254.38;5045560;28;20518;-81
2024/02/01 02:20:56;;;;;;;0.10;0.10;;;;;;;3.10;74.83;99244.88;5049672;28;20491;-82
2024/02/01 02:23:24;;;;;;;1.08;0.00;;;;;;;3.09;74.81;99246.63;5047893;28;20128;-81
2024/02/01 02:25:51;;;;;;;0.40;0.10;;;;;;;3.11;74.59;99257.78;5043061;28;20088;-81
2024/02/01 02:28:18;;;;;;;3.13;0.30;;;;;;;3.11;74.68;99251.78;5047762;28;20081;-81
2024/02/01 02:30:45;;;;;;;0.10;0.10;;;;;;;3.11;74.65;99244.88;5040100;28;20083;-81
2024/02/01 02:33:12;;;;;;;0.77;0.10;;;;;;;3.00;74.54;99229.53;5044662;28;20073;-80
2024/02/01 02:35:39;;;;;;;2.15;0.10;;;;;;;3.12;74.44;99238.81;5048352;28;20073;-81
2024/02/01 02:38:06;;;;;;;0.10;0.00;;;;;;;3.12;74.39;99231.06;5050967;28;20478;-81
2024/02/01 02:40:35;;;;;;;1.30;0.08;;;;;;;3.14;74.20;99234.47;5048099;28;20064;-81
2024/02/01 02:43:02;;;;;;;1.20;0.10;;;;;;;3.16;74.22;99244.81;5044404;28;20088;-81
2024/02/01 02:45:29;;;;;;;0.57;0.08;;;;;;;3.15;73.96;99233.59;5046977;28;20069;-81
2024/02/01 02:47:57;;;;;;;0.40;0.10;;;;;;;3.14;73.94;99242.25;5049230;28;20675;-81
2024/02/01 02:50:24;;;;;;;2.15;0.10;;;;;;;3.15;73.88;99254.28;5052022;28;20061;-73
2024/02/01 02:52:51;;;;;;;2.40;0.10;;;;;;;3.15;73.54;99228.44;5040925;28;20132;-73
2024/02/01 02:55:18;;;;;;;1.40;0.10;;;;;;;3.15;73.46;99236.19;5051614;28;20053;-73
2024/02/01 02:57:46;;;;;;;2.78;0.10;;;;;;;3.16;73.30;99232.72;5045532;28;20080;-74
2024/02/01 03:00:18;;;;;;;1.27;0.20;;;;;;;3.16;73.34;99240.50;5051088;28;20076;-77
2024/02/01 03:02:47;;;;;;;0.15;0.00;;;;;;;3.16;73.09;99255.16;5046834;28;20499;-77
2024/02/01 03:05:16;;;;;;;2.08;0.08;;;;;;;3.16;73.13;99250.81;5050431;28;20414;-77
2024/02/01 03:07:43;;;;;;;5.30;0.10;;;;;;;3.16;72.80;99242.22;5049487;28;20044;-76
2024/02/01 03:10:11;;;;;;;0.68;0.25;;;;;;;3.16;72.97;99239.63;5049146;28;20064;-76
2024/02/01 03:12:40;;;;;;;1.75;0.10;;;;;;;3.14;72.57;99225.88;5049558;28;20084;-77
2024/02/01 03:15:09;;;;;;;1.13;0.30;;;;;;;3.14;72.34;99247.41;5051624;28;20103;-76
2024/02/01 03:17:37;;;;;;;1.13;0.10;;;;;;;3.14;72.14;99244.81;5049589;28;20697;-77
2024/02/01 03:20:17;;;;;;;1.38;0.10;;;;;;;3.15;72.20;99249.09;5051512;28;20496;-76
2024/02/01 03:22:46;;;;;;;2.33;0.25;;;;;;;3.14;72.17;99264.66;5048600;28;20053;-76
2024/02/01 03:25:13;;;;;;;1.65;0.10;;;;;;;3.14;72.25;99234.47;5049390;28;20060;-77
2024/02/01 03:27:43;;;;;;;2.30;0.10;;;;;;;3.13;71.89;99240.53;5050519;28;20087;-77
2024/02/01 03:30:12;;;;;;;1.02;0.10;;;;;;;3.13;71.58;99255.19;5038071;28;20748;-76
2024/02/01 03:32:40;;;;;;;3.28;0.68;;;;;;;3.12;71.46;99259.50;5048144;28;20045;-76
2024/02/01 03:35:09;;;;;;;2.67;0.20;;;;;;;3.12;71.51;99258.66;5049474;28;20414;-77
2024/02/01 03:37:36;;;;;;;2.35;0.10;;;;;;;3.10;71.35;99253.53;5049889;28;20103;-77
2024/02/01 03:40:04;;;;;;;3.53;0.22;;;;;;;3.09;71.15;99241.47;5048362;28;20131;-76
2024/02/01 03:42:31;;;;;;;5.30;0.20;;;;;;;3.09;71.02;99256.13;5049114;28;20149;-77
2024/02/01 03:44:58;;;;;;;4.85;0.30;;;;;;;3.08;70.86;99252.69;5045146;28;20081;-77
2024/02/01 03:47:27;;;;;;;1.95;0.10;;;;;;;3.05;70.95;99245.84;5045247;28;20123;-77
2024/02/01 03:49:54;;;;;;;1.05;0.10;;;;;;;3.04;70.72;99236.38;5049451;28;20080;-76
2024/02/01 03:52:21;;;;;;;2.00;0.10;;;;;;;3.03;70.68;99244.16;5048866;28;20137;-77
2024/02/01 03:54:53;;;;;;;5.38;0.20;;;;;;;3.02;70.55;99226.94;5048919;28;20048;-77
2024/02/01 03:57:20;;;;;;;3.53;0.17;;;;;;;3.00;70.48;99239.03;5047138;28;20170;-77
2024/02/01 03:59:48;;;;;;;3.28;0.20;;;;;;;2.92;70.07;99230.56;5051499;28;20124;-81
2024/02/01 04:02:15;;;;;;;3.13;0.10;;;;;;;2.94;70.31;99241.72;5049711;28;20045;-80
2024/02/01 04:04:45;;;;;;;3.17;0.25;;;;;;;2.96;70.33;99243.41;5052937;28;20435;-81
2024/02/01 04:07:16;;;;;;;4.32;0.30;;;;;;;2.95;70.37;99256.34;5047872;28;20042;-81
2024/02/01 04:09:44;;;;;;;2.95;0.10;;;;;;;2.93;70.19;99260.69;5043337;28;20053;-77
2024/02/01 04:12:11;;;;;;;2.45;0.15;;;;;;;2.90;70.23;99247.78;5046983;28;20072;-77
2024/02/01 04:14:38;;;;;;;4.50;0.25;;;;;;;2.91;70.08;99231.44;5045383;28;20040;-76
2024/02/01 04:17:06;;;;;;;2.45;0.22;;;;;;;2.88;69.73;99254.75;5051413;28;20691;-77
2024/02/01 04:19:33;;;;;;;10.15;1.10;;;;;;;2.87;69.91;99253.00;5046120;28;20055;-77
2024/02/01 04:22:01;;;;;;;8.40;0.95;;;;;;;2.84;69.71;99248.75;5048091;28;20451;-78
2024/02/01 04:24:28;;;;;;;6.50;1.05;;;;;;;2.83;69.47;99262.53;5048181;28;20044;-77
2024/02/01 04:26:55;;;;;;;7.18;0.25;;;;;;;2.81;69.62;99234.19;5049161;28;20077;-77
2024/02/01 04:29:22;;;;;;;7.68;0.80;;;;;;;2.80;69.73;99245.38;5044213;28;20076;-77
2024/02/01 04:31:49;;;;;;;1.27;0.30;;;;;;;2.77;69.74;99245.41;5047489;28;20124;-77
2024/02/01 04:34:16;;;;;;;6.05;0.40;;;;;;;2.75;69.51;99257.50;5050173;28;20076;-78
2024/02/01 04:36:44;;;;;;;8.30;0.90;;;;;;;2.74;69.21;99248.03;5046261;28;20045;-77
2024/02/01 04:39:13;;;;;;;4.13;0.30;;;;;;;2.72;69.11;99249.78;5040786;28;20508;-77
2024/02/01 04:41:40;;;;;;;4.93;0.20;;;;;;;2.70;69.44;99264.47;5042042;28;20466;-77
2024/02/01 04:44:10;;;;;;;1.88;0.90;;;;;;;2.68;69.40;99266.22;5045543;28;20057;-77
2024/02/01 04:46:37;;;;;;;6.30;0.52;;;;;;;2.67;69.38;99256.78;5040671;28;20040;-77
2024/02/01 04:49:11;;;;;;;6.05;0.70;;;;;;;2.65;69.27;99250.78;5044690;28;20132;-78
2024/02/01 04:51:39;;;;;;;5.70;0.30;;;;;;;2.61;69.13;99246.50;5025608;28;20049;-78
2024/02/01 04:54:06;;;;;;;8.80;0.80;;;;;;;2.60;69.16;99266.31;5041904;28;20136;-77
2024/02/01 04:56:36;;;;;;;5.05;0.30;;;;;;;2.58;69.06;99282.72;5042930;28;20053;-76
2024/02/01 04:59:03;;;;;;;5.32;0.40;;;;;;;2.57;68.81;99276.69;5037982;28;21973;-77
2024/02/01 05:01:31;;;;;;;6.60;0.30;;;;;;;2.55;68.82;99277.59;5041657;28;20461;-78
2024/02/01 05:03:58;;;;;;;3.28;0.50;;;;;;;2.54;68.89;99275.91;5044162;28;20063;-77
2024/02/01 05:06:25;;;;;;;10.10;0.47;;;;;;;2.52;68.64;99257.81;5040600;28;20426;-77
2024/02/01 05:08:53;;;;;;;5.40;0.50;;;;;;;2.50;68.80;99269.03;5045210;28;20053;-76
2024/02/01 05:11:20;;;;;;;6.72;0.40;;;;;;;2.47;68.30;99249.31;5041544;28;20049;-76
2024/02/01 05:13:48;;;;;;;12.55;0.35;;;;;;;2.46;68.49;99250.19;5043407;28;20558;-76
2024/02/01 05:16:16;;;;;;;3.45;0.45;;;;;;;2.45;68.00;99245.06;5042231;28;20133;-76
2024/02/01 05:18:43;;;;;;;8.48;0.40;;;;;;;2.43;68.00;99247.63;5041588;28;20049;-78
2024/02/01 05:21:10;;;;;;;5.80;0.43;;;;;;;2.41;67.92;99251.13;5042035;28;20136;-76
2024/02/01 05:23:37;;;;;;;6.32;0.95;;;;;;;2.40;68.21;99252.00;5041816;28;20080;-76
2024/02/01 05:26:07;;;;;;;12.60;0.47;;;;;;;2.36;67.94;99249.47;5042823;28;20084;-77
2024/02/01 05:28:34;;;;;;;4.55;0.35;;;;;;;2.35;67.80;99250.31;5041861;28;20037;-77
2024/02/01 05:31:03;;;;;;;6.40;0.45;;;;;;;2.35;67.77;99231.41;5043321;28;20125;-82
2024/02/01 05:33:29;;;;;;;5.15;0.40;;;;;;;2.32;67.96;99234.88;5041869;28;20077;-77
2024/02/01 05:35:56;;;;;;;5.57;0.30;;;;;;;2.32;67.71;99234.03;5041234;28;20080;-77
2024/02/01 05:38:23;;;;;;;7.70;0.35;;;;;;;2.29;67.75;99234.91;5043094;28;20060;-77
2024/02/01 05:40:50;;;;;;;5.25;0.30;;;;;;;2.28;67.75;99232.38;5043710;28;20057;-77
2024/02/01 05:43:17;;;;;;;9.05;0.40;;;;;;;2.26;67.44;99221.22;5038704;28;20938;-76
2024/02/01 05:45:44;;;;;;;6.60;0.30;;;;;;;2.25;67.31;99237.59;5042081;28;20099;-77
2024/02/01 05:48:13;;;;;;;4.80;0.30;;;;;;;2.23;67.18;99235.00;5042752;28;20132;-77
2024/02/01 05:50:41;;;;;;;4.95;0.35;;;;;;;2.22;67.14;99243.63;5041588;28;20151;-76
2024/02/01 05:53:09;;;;;;;10.05;0.40;;;;;;;2.21;67.24;99262.56;5040499;28;20139;-76
2024/02/01 05:55:37;;;;;;;7.53;0.63;;;;;;;2.11;67.21;99245.50;5043320;28;20400;-76
2024/02/01 05:58:06;;;;;;;5.50;0.45;;;;;;;2.18;67.21;99262.59;5041300;28;20048;-77
2024/02/01 06:00:33;;;;;;;11.40;0.82;;;;;;;2.16;67.14;99251.47;5041660;28;20555;-76
2024/02/01 06:03:00;;;;;;;9.68;1.30;;;;;;;2.05;66.90;99243.84;5041115;28;20095;-78
2024/02/01 06:05:29;;;;;;;10.85;1.02;;;;;;;2.14;67.15;99253.19;5038033;28;20969;-76
2024/02/01 06:07:56;;;;;;;10.85;1.25;;;;;;;2.13;66.79;99252.34;5042760;28;20496;-76
2024/02/01 06:10:23;;;;;;;5.72;1.00;;;;;;;2.10;66.89;99265.28;5041047;28;20579;-76
2024/02/01 06:12:50;;;;;;;7.70;1.65;;;;;;;2.10;66.87;99259.25;5041557;28;20965;-76
2024/02/01 06:15:17;;;;;;;5.25;0.30;;;;;;;2.09;66.98;99252.41;5037619;28;20132;-76
2024/02/01 06:17:44;;;;;;;5.60;0.32;;;;;;;2.06;66.58;99270.50;5042206;28;20072;-76
2024/02/01 06:20:12;;;;;;;7.00;0.68;;;;;;;2.06;66.55;99281.66;5041215;28;20572;-75
2024/02/01 06:22:40;;;;;;;9.10;0.40;;;;;;;2.06;66.60;99296.28;5041045;28;20080;-76
2024/02/01 06:25:11;;;;;;;5.53;0.30;;;;;;;2.04;66.60;99300.59;5039504;28;20136;-76
2024/02/01 06:27:38;;;;;;;6.35;0.50;;;;;;;2.04;66.58;99308.34;5040369;28;20503;-75
2024/02/01 06:30:10;;;;;;;9.98;0.80;;;;;;;2.03;66.39;99304.06;5039039;28;20041;-73
2024/02/01 06:32:37;;;;;;;6.90;0.35;;;;;;;1.96;66.10;99305.88;5038806;28;20116;-72
2024/02/01 06:35:13;;;;;;;4.53;0.25;;;;;;;2.01;66.19;99310.97;5039405;28;20586;-73
2024/02/01 06:37:42;;;;;;;6.60;0.30;;;;;;;1.99;66.10;99300.69;5036027;28;20053;-73
2024/02/01 06:40:37;;;;;;;3.88;0.40;;;;;;;1.98;65.90;99308.41;5039205;28;20119;-72
2024/02/01 06:43:11;;;;;;;12.20;0.82;;;;;;;1.96;65.98;99313.63;5040833;28;20103;-73
2024/02/01 06:45:45;;;;;;;4.40;0.40;;;;;;;1.95;66.00;99306.72;5038628;28;20683;-72
2024/02/01 06:48:12;;;;;;;3.50;0.40;;;;;;;1.94;65.81;99307.59;5038016;28;20041;-72
2024/02/01 06:50:46;;;;;;;6.25;0.30;;;;;;;1.94;65.85;99310.19;5042458;28;20084;-73
2024/02/01 06:53:20;;;;;;;3.95;0.38;;;;;;;1.92;65.76;99323.09;5036574;28;20126;-73
2024/02/01 06:55:54;;;;;;;1.55;0.20;;;;;;;1.92;65.82;99320.50;5041680;28;20068;-73
2024/02/01 06:58:38;;;;;;;4.60;1.40;;;;;;;1.91;65.45;99339.44;5039741;28;20052;-74
2024/02/01 07:01:23;;;;;;;4.45;0.43;;;;;;;1.91;65.52;99344.59;5039436;28;20064;-74
2024/02/01 07:04:07;;;;;;;1.70;0.20;;;;;;;1.87;65.32;99342.91;5039049;28;20175;-72
2024/02/01 07:06:39;;;;;;;4.80;0.93;;;;;;;1.86;65.58;99356.69;5038023;28;20041;-77
2024/02/01 07:09:28;;;;;;;2.95;0.30;;;;;;;1.89;65.26;99372.13;5041438;28;20049;-77
2024/02/01 07:12:09;;;;;;;4.38;0.20;;;;;;;1.88;65.27;99361.84;5038569;28;20070;-76
2024/02/01 07:14:39;;;;;;;5.50;0.30;;;;;;;1.88;65.09;99346.38;5039943;28;20079;-74
2024/02/01 07:20:03;;;;;;;1.75;0.15;;;;;;;1.85;65.18;99354.97;4980623;28;20132;-76
2024/02/01 07:22:38;;;;;;;3.40;0.30;;;;;;;1.83;64.89;99364.44;5042241;28;20107;-77
2024/02/01 07:25:23;;;;;;;3.58;0.20;;;;;;;1.85;64.90;99367.88;5041565;28;20131;-75
2024/02/01 07:58:08;;;;;;;5.65;0.30;;;;;;;1.78;64.74;99401.47;5043760;28;20056;-72
2024/02/01 08:00:44;;;;;;;6.07;0.40;;;;;;;1.73;65.13;99400.66;5042413;28;20385;-70
2024/02/01 08:03:32;;;;;;;4.85;0.20;;;;;;;1.77;64.86;99405.78;5043126;28;20056;-70
2024/02/01 08:08:44;;;;;;;7.00;0.30;;;;;;;1.77;64.86;99410.94;5040329;28;20079;-71
2024/02/01 08:11:17;;;;;;;5.25;0.30;;;;;;;1.77;64.58;99423.81;5042964;28;20410;-70
2024/02/01 08:13:50;;;;;;;1.75;0.45;;;;;;;1.78;64.76;99420.38;5042450;28;20073;-71
2024/02/01 08:16:18;;;;;;;6.55;0.35;;;;;;;1.78;64.40;99433.25;5042149;28;20526;-71
2024/02/01 08:18:45;;;;;;;4.72;0.30;;;;;;;1.77;64.74;99431.56;5043939;28;20049;-70
2024/02/01 08:21:19;;;;;;;9.93;0.50;;;;;;;1.78;64.60;99425.53;5042218;28;20083;-72
2024/02/01 08:23:46;;;;;;;6.90;0.22;;;;;;;1.79;64.83;99426.38;5043322;28;20045;-71
2024/02/01 08:26:16;;;;;;;10.05;0.60;;;;;;;1.79;64.71;99422.09;5040604;28;20072;-72
2024/02/01 08:28:43;;;;;;;3.38;0.20;;;;;;;1.81;64.98;99427.22;5043364;28;20140;-71
2024/02/01 08:31:14;;;;;;;5.38;1.13;;;;;;;1.81;64.79;99422.91;5042701;28;20132;-72
2024/02/01 08:33:42;;;;;;;6.13;0.30;;;;;;;1.81;64.96;99427.22;5043842;28;20123;-70
2024/02/01 08:36:12;;;;;;;1.90;0.20;;;;;;;1.81;65.15;99420.34;5040337;28;20487;-70
2024/02/01 08:38:39;;;;;;;2.85;0.38;;;;;;;1.83;65.47;99430.66;5043037;28;20072;-74
2024/02/01 08:41:06;;;;;;;3.15;0.20;;;;;;;1.84;65.36;99433.19;5045267;28;20473;-79
2024/02/01 08:43:38;;;;;;;3.97;0.17;;;;;;;1.85;64.97;99423.78;5048141;28;20079;-76
2024/02/01 08:46:05;;;;;;;3.50;0.20;;;;;;;1.87;65.24;99432.31;5043311;28;20051;-75
2024/02/01 08:48:34;;;;;;;2.88;0.20;;;;;;;1.88;64.96;99431.47;5044060;28;20135;-78
2024/02/01 08:51:01;;;;;;;2.35;0.20;;;;;;;1.89;65.47;99426.28;5040575;28;20132;-73
2024/02/01 08:53:28;;;;;;;6.10;0.43;;;;;;;1.90;65.37;99428.00;5043377;28;20102;-75
2024/02/01 08:55:55;;;;;;;2.70;0.10;;;;;;;1.91;65.34;99429.72;5042635;28;20106;-74
2024/02/01 08:58:22;;;;;;;3.95;0.40;;;;;;;1.92;65.38;99436.56;5044478;28;20080;-74
2024/02/01 09:00:49;;;;;;;3.85;0.20;;;;;;;1.95;65.39;99433.13;5039464;28;20999;-76
2024/02/01 09:03:29;;;;;;;5.90;0.20;;;;;;;1.96;65.40;99436.53;5041187;28;20049;-75
2024/02/01 09:06:08;;;;;;;3.63;0.10;;;;;;;1.98;65.54;99432.22;5039704;28;20132;-75
2024/02/01 09:08:36;;;;;;;2.50;0.20;;;;;;;1.98;65.03;99424.50;5040799;28;20410;-74
2024/02/01 09:11:11;;;;;;;7.78;0.20;;;;;;;2.02;65.33;99431.34;5044139;28;20060;-75
2024/02/01 09:13:38;;;;;;;1.52;0.20;;;;;;;2.04;65.26;99437.34;5043579;28;20049;-75
2024/02/01 09:16:06;;;;;;;2.05;0.20;;;;;;;2.05;65.42;99437.34;5039711;28;20140;-76
2024/02/01 09:18:33;;;;;;;3.53;0.20;;;;;;;2.08;65.42;99436.44;5042608;28;20069;-77
2024/02/01 09:21:01;;;;;;;4.20;0.68;;;;;;;2.09;65.49;99433.00;5041010;28;20124;-74
2024/02/01 09:23:28;;;;;;;2.33;0.15;;;;;;;2.11;65.47;99441.56;5043295;28;20052;-75
2024/02/01 09:25:55;;;;;;;4.15;0.20;;;;;;;2.15;65.54;99443.25;5042025;28;20133;-75
2024/02/01 09:28:22;;;;;;;4.13;0.40;;;;;;;2.16;65.46;99444.97;5042004;28;20156;-75
2024/02/01 09:30:51;;;;;;;5.10;0.20;;;;;;;2.17;65.31;99446.69;5039829;28;20159;-75
2024/02/01 09:33:19;;;;;;;3.63;0.85;;;;;;;2.21;65.22;99456.09;5041436;28;20103;-73
2024/02/01 09:35:48;;;;;;;1.63;0.17;;;;;;;2.22;65.52;99454.38;5040686;28;20053;-75
2024/02/01 09:38:19;;;;;;;1.60;0.17;;;;;;;2.21;65.45;99458.66;5039678;28;20137;-74
2024/02/01 09:40:47;;;;;;;6.75;0.52;;;;;;;2.27;65.46;99463.78;5042384;28;20131;-74
2024/02/01 09:43:20;;;;;;;5.97;0.30;;;;;;;2.29;65.62;99456.88;5034716;28;20453;-74
2024/02/01 09:45:48;;;;;;;9.38;0.20;;;;;;;2.28;65.51;99450.00;5041566;28;20045;-74
2024/02/01 09:48:17;;;;;;;3.15;0.28;;;;;;;2.29;65.25;99446.53;5038856;28;20487;-73
2024/02/01 09:50:51;;;;;;;6.82;1.00;;;;;;;2.36;65.24;99453.38;5041172;28;20057;-75
2024/02/01 09:53:21;;;;;;;2.78;0.20;;;;;;;2.37;65.00;99455.06;5035863;28;20087;-75
2024/02/01 09:55:49;;;;;;;1.98;0.15;;;;;;;2.40;65.49;99450.75;5043141;28;20380;-77
2024/02/01 09:58:17;;;;;;;4.95;0.30;;;;;;;2.44;64.99;99460.16;5041696;28;20052;-76
2024/02/01 10:00:44;;;;;;;5.85;0.20;;;;;;;2.47;65.24;99460.13;5040718;28;20626;-75
2024/02/01 10:03:13;;;;;;;5.68;0.32;;;;;;;2.49;65.22;99459.25;5041705;28;20055;-77
2024/02/01 10:05:42;;;;;;;2.67;0.20;;;;;;;2.51;64.89;99454.94;5043082;28;20049;-77
2024/02/01 10:08:14;;;;;;;1.17;0.15;;;;;;;2.53;64.85;99455.78;5042296;28;20052;-78
2024/02/01 10:10:44;;;;;;;3.92;0.30;;;;;;;2.54;64.81;99452.31;5046337;28;20049;-76
2024/02/01 10:13:13;;;;;;;3.85;0.20;;;;;;;2.53;64.65;99448.03;5037588;28;20710;-78
2024/02/01 10:15:43;;;;;;;2.20;0.20;;;;;;;2.48;64.88;99439.47;5044436;28;20048;-78
2024/02/01 10:18:15;;;;;;;4.15;0.15;;;;;;;2.58;64.78;99459.13;5039403;28;20095;-76
2024/02/01 10:20:48;;;;;;;6.00;0.20;;;;;;;2.60;64.64;99466.88;5041905;28;20076;-76
2024/02/01 10:23:15;;;;;;;6.95;0.28;;;;;;;2.62;64.73;99464.28;5044214;28;20817;-76
2024/02/01 10:25:47;;;;;;;3.65;0.20;;;;;;;2.63;64.38;99459.09;5040670;28;20073;-76
2024/02/01 10:28:16;;;;;;;2.40;0.15;;;;;;;2.65;64.55;99457.34;5041164;28;20175;-75
2024/02/01 10:30:43;;;;;;;4.22;0.28;;;;;;;2.68;64.56;99465.06;5037421;28;20044;-74
2024/02/01 10:33:11;;;;;;;4.18;0.20;;;;;;;2.70;64.56;99462.44;5040870;28;20083;-74
2024/02/01 10:35:38;;;;;;;3.03;0.10;;;;;;;2.71;64.62;99453.84;5042586;28;20080;-77
2024/02/01 10:38:13;;;;;;;4.15;0.30;;;;;;;2.73;64.64;99467.56;5039957;28;20132;-77
2024/02/01 10:40:58;;;;;;;3.80;0.30;;;;;;;2.75;64.50;99473.59;5040049;28;20145;-76
2024/02/01 10:43:27;;;;;;;1.45;0.30;;;;;;;2.76;64.51;99475.31;5040778;28;20099;-76
2024/02/01 10:46:09;;;;;;;4.10;0.20;;;;;;;2.76;64.50;99463.25;5042202;28;20144;-77
2024/02/01 10:48:43;;;;;;;1.00;0.63;;;;;;;2.81;64.62;99482.13;5046688;28;20136;-78
2024/02/01 10:51:13;;;;;;;3.13;0.20;;;;;;;2.83;64.49;99467.44;5044106;28;20072;-78
2024/02/01 10:53:43;;;;;;;2.30;0.68;;;;;;;2.85;64.24;99461.44;5044119;28;20380;-77
2024/02/01 10:56:15;;;;;;;1.55;0.17;;;;;;;2.86;64.12;99463.97;5044850;28;20103;-78
2024/02/01 10:58:47;;;;;;;5.72;0.10;;;;;;;2.88;64.43;99471.72;5046639;28;20407;-78
2024/02/01 11:01:17;;;;;;;2.38;0.20;;;;;;;2.89;64.13;99482.03;5038645;28;20068;-74
2024/02/01 11:03:48;;;;;;;5.25;0.20;;;;;;;2.89;64.14;99465.69;5041941;28;20076;-74
2024/02/01 11:06:17;;;;;;;3.70;0.10;;;;;;;2.92;64.19;99470.81;5044018;28;20083;-74
2024/02/01 11:08:46;;;;;;;2.60;0.35;;;;;;;2.93;64.13;99469.94;5043264;28;20699;-76
2024/02/01 11:11:20;;;;;;;4.05;0.20;;;;;;;2.94;63.88;99482.84;5048310;28;20418;-78
2024/02/01 11:13:49;;;;;;;3.28;0.30;;;;;;;2.95;63.88;99488.84;5049152;28;20432;-78
2024/02/01 11:16:17;;;;;;;3.55;0.20;;;;;;;2.97;63.96;99487.09;5048006;28;20052;-78
2024/02/01 11:18:54;;;;;;;2.53;0.10;;;;;;;2.98;63.99;99496.56;5047561;28;20045;-78
2024/02/01 11:21:32;;;;;;;9.63;0.43;;;;;;;2.99;63.82;99503.47;5044908;28;20418;-74
2024/02/01 11:24:08;;;;;;;3.40;0.20;;;;;;;2.99;64.07;99500.88;5045244;28;20051;-72
2024/02/01 11:26:40;;;;;;;1.95;0.28;;;;;;;3.00;63.94;99500.00;5045449;28;20120;-72
2024/02/01 11:29:08;;;;;;;3.95;0.10;;;;;;;3.00;63.76;99492.25;5042404;28;20052;-72
2024/02/01 11:31:35;;;;;;;4.55;0.10;;;;;;;3.01;63.69;99504.28;5042946;28;20045;-72
2024/02/01 11:34:05;;;;;;;4.47;0.20;;;;;;;3.02;63.73;99511.16;5043461;28;20139;-78
2024/02/01 11:36:33;;;;;;;4.03;0.43;;;;;;;3.02;63.74;99504.25;5040820;28;20050;-74
2024/02/01 11:39:00;;;;;;;2.72;0.10;;;;;;;2.98;63.80;99505.16;5045331;28;20041;-73
2024/02/01 11:41:28;;;;;;;1.33;0.10;;;;;;;3.03;63.59;99518.88;5043666;28;20045;-73
2024/02/01 11:43:57;;;;;;;4.28;0.20;;;;;;;3.04;63.64;99530.06;5040845;28;20036;-72
2024/02/01 11:46:24;;;;;;;3.40;0.30;;;;;;;3.04;63.71;99517.16;5042917;28;20071;-72
2024/02/01 11:48:51;;;;;;;2.90;0.20;;;;;;;3.05;63.67;99513.72;5044261;28;20136;-74
2024/02/01 11:51:18;;;;;;;4.20;0.20;;;;;;;3.05;63.30;99526.63;5044903;28;20077;-73
2024/02/01 11:53:45;;;;;;;2.67;0.10;;;;;;;3.05;63.25;99535.25;5041923;28;20136;-72
2024/02/01 11:56:12;;;;;;;4.40;0.30;;;;;;;3.05;63.26;99544.72;5044023;28;20148;-71
2024/02/01 11:58:39;;;;;;;0.13;0.03;;;;;;;3.05;63.28;99540.41;5041735;28;20102;-73
2024/02/01 12:01:08;;;;;;;2.53;0.00;;;;;;;3.04;62.90;99543.00;5041916;28;20132;-71
2024/02/01 12:03:37;;;;;;;3.70;0.10;;;;;;;3.03;62.87;99554.22;5046395;28;20120;-71
2024/02/01 12:06:05;;;;;;;4.75;0.35;;;;;;;3.00;62.84;99547.34;5041804;28;20111;-71
2024/02/01 12:08:33;;;;;;;2.25;0.25;;;;;;;2.99;62.76;99558.56;5039979;28;20125;-72
2024/02/01 12:11:00;;;;;;;1.48;0.10;;;;;;;2.98;62.49;99555.97;5045947;28;20052;-74
2024/02/01 12:13:27;;;;;;;1.23;0.10;;;;;;;2.97;62.55;99554.28;5039616;28;20069;-72
2024/02/01 12:15:54;;;;;;;4.50;0.10;;;;;;;2.95;62.40;99561.19;5044225;28;20143;-72
2024/02/01 12:18:24;;;;;;;1.90;0.20;;;;;;;2.95;62.49;99577.53;5041279;28;21144;-74
2024/02/01 12:20:52;;;;;;;0.93;0.05;;;;;;;2.94;62.54;99583.59;5043242;28;20088;-72
2024/02/01 12:23:20;;;;;;;4.70;0.00;;;;;;;2.93;62.33;99583.63;5040769;28;20045;-76
2024/02/01 12:25:49;;;;;;;0.68;0.00;;;;;;;2.91;62.34;99590.53;5043250;28;20162;-73